createdAt,value
2023-02-09T00:01:37.609Z,-3.00
2023-02-09T00:04:04.523Z,-2.90
2023-02-09T00:06:31.186Z,-2.90
2023-02-09T00:08:58.772Z,-2.90
2023-02-09T00:11:46.765Z,-2.90
2023-02-09T00:14:15.978Z,-2.90
2023-02-09T00:16:43.214Z,-3.00
2023-02-09T00:19:11.243Z,-3.00
2023-02-09T00:21:38.965Z,-3.00
2023-02-09T00:24:06.135Z,-3.00
2023-02-09T00:26:33.702Z,-2.90
2023-02-09T00:29:00.239Z,-3.00
2023-02-09T00:31:27.099Z,-3.00
2023-02-09T00:33:53.901Z,-3.00
2023-02-09T00:36:20.598Z,-3.10
2023-02-09T00:38:47.465Z,-3.20
2023-02-09T00:41:15.592Z,-3.20
2023-02-09T00:43:42.565Z,-3.20
2023-02-09T00:46:12.277Z,-3.20
2023-02-09T00:48:38.819Z,-3.20
2023-02-09T00:51:05.489Z,-3.30
2023-02-09T00:53:32.072Z,-3.30
2023-02-09T00:55:59.815Z,-3.30
2023-02-09T00:58:26.580Z,-3.30
2023-02-09T01:00:53.216Z,-3.30
2023-02-09T01:03:19.885Z,-3.30
2023-02-09T01:05:46.501Z,-3.20
2023-02-09T01:08:13.108Z,-3.10
2023-02-09T01:10:39.642Z,-3.20
2023-02-09T01:13:06.669Z,-3.10
2023-02-09T01:15:33.319Z,-3.10
2023-02-09T01:18:00.333Z,-3.20
2023-02-09T01:20:27.723Z,-3.20
2023-02-09T01:22:54.683Z,-3.20
2023-02-09T01:25:21.546Z,-3.30
2023-02-09T01:27:48.231Z,-3.20
2023-02-09T01:30:15.472Z,-3.20
2023-02-09T01:32:42.093Z,-3.20
2023-02-09T01:35:11.754Z,-3.20
2023-02-09T01:37:40.197Z,-3.30
2023-02-09T01:40:07.939Z,-3.30
2023-02-09T01:42:34.856Z,-3.30
2023-02-09T01:45:05.150Z,-3.30
2023-02-09T01:47:41.772Z,-3.30
2023-02-09T01:50:08.881Z,-3.20
2023-02-09T01:52:35.647Z,-3.10
2023-02-09T01:55:06.532Z,-3.10
2023-02-09T01:57:37.315Z,-3.10
2023-02-09T02:00:15.868Z,-3.20
2023-02-09T02:02:49.757Z,-3.30
2023-02-09T02:05:17.132Z,-3.30
2023-02-09T02:07:51.592Z,-3.20
2023-02-09T02:10:18.328Z,-3.30
2023-02-09T02:12:45.683Z,-2.30
2023-02-09T02:15:12.550Z,-3.30
2023-02-09T02:18:01.102Z,-3.30
2023-02-09T02:21:11.572Z,-3.30
2023-02-09T02:24:00.768Z,-3.30
2023-02-09T02:26:43.772Z,-3.30
2023-02-09T02:29:22.193Z,-3.30
2023-02-09T02:32:15.852Z,-3.30
2023-02-09T02:34:53.015Z,-3.30
2023-02-09T02:37:40.247Z,-3.30
2023-02-09T02:40:19.389Z,-3.40
2023-02-09T02:42:57.867Z,-3.40
2023-02-09T02:45:45.814Z,-3.40
2023-02-09T02:48:33.270Z,-3.40
2023-02-09T02:51:05.621Z,-3.40
2023-02-09T02:53:35.197Z,-3.50
2023-02-09T02:56:10.499Z,-3.50
2023-02-09T02:58:40.104Z,-3.60
2023-02-09T03:01:10.927Z,-3.50
2023-02-09T03:03:40.802Z,-3.50
2023-02-09T03:06:09.730Z,-3.60
2023-02-09T03:08:53.677Z,-3.60
2023-02-09T03:11:22.861Z,-3.60
2023-02-09T03:14:18.129Z,-3.70
2023-02-09T03:16:48.123Z,-3.70
2023-02-09T03:19:29.773Z,-3.70
2023-02-09T03:22:07.295Z,-3.70
2023-02-09T03:24:37.354Z,-3.60
2023-02-09T03:27:10.585Z,-3.60
2023-02-09T03:29:38.202Z,-3.60
2023-02-09T03:32:05.788Z,-3.60
2023-02-09T03:34:32.794Z,-3.50
2023-02-09T03:36:59.413Z,-3.50
2023-02-09T03:39:26.009Z,-3.40
2023-02-09T03:41:52.527Z,-3.20
2023-02-09T03:44:28.317Z,-3.10
2023-02-09T03:47:03.440Z,-2.90
2023-02-09T03:49:33.453Z,-2.70
2023-02-09T03:52:01.506Z,-2.30
2023-02-09T03:54:32.143Z,-2.00
2023-02-09T03:57:00.181Z,-1.90
2023-02-09T03:59:27.878Z,-1.80
2023-02-09T04:01:56.914Z,-1.80
2023-02-09T04:04:24.714Z,-1.60
2023-02-09T04:06:51.656Z,-1.60
2023-02-09T04:09:18.564Z,-1.50
2023-02-09T04:11:46.946Z,-1.40
2023-02-09T04:14:14.350Z,-1.30
2023-02-09T04:16:41.236Z,-1.20
2023-02-09T04:19:09.510Z,-1.20
2023-02-09T04:21:36.858Z,-1.20
2023-02-09T04:24:04.044Z,-1.20
2023-02-09T04:26:30.751Z,-1.00
2023-02-09T04:28:57.537Z,-0.90
2023-02-09T04:31:24.162Z,-0.90
2023-02-09T04:33:50.822Z,-1.00
2023-02-09T04:36:17.907Z,-1.00
2023-02-09T04:38:44.471Z,-0.90
2023-02-09T04:41:11.216Z,-0.80
2023-02-09T04:43:37.878Z,-0.70
2023-02-09T04:46:04.657Z,-0.70
2023-02-09T04:48:31.197Z,-0.70
2023-02-09T04:50:58.053Z,-0.70
2023-02-09T04:53:25.772Z,-0.70
2023-02-09T04:55:52.990Z,-0.70
2023-02-09T04:58:39.248Z,-0.80
2023-02-09T05:01:07.014Z,-0.80
2023-02-09T05:03:33.754Z,-0.80
2023-02-09T05:06:03.543Z,-0.80
2023-02-09T05:08:30.804Z,-0.80
2023-02-09T05:10:58.191Z,-0.80
2023-02-09T05:13:25.976Z,-0.70
2023-02-09T05:15:53.613Z,-0.70
2023-02-09T05:18:20.371Z,-0.80
2023-02-09T05:20:48.150Z,-0.80
2023-02-09T05:23:14.873Z,-0.70
2023-02-09T05:25:41.869Z,-0.70
2023-02-09T05:28:08.659Z,-0.70
2023-02-09T05:30:35.364Z,-0.80
2023-02-09T05:33:03.180Z,-0.90
2023-02-09T05:35:29.847Z,-0.70
2023-02-09T05:37:56.387Z,-0.50
2023-02-09T05:40:23.140Z,-0.50
2023-02-09T05:42:49.695Z,-0.50
2023-02-09T05:45:16.322Z,-0.60
2023-02-09T05:47:42.850Z,-0.50
2023-02-09T05:50:09.619Z,-0.50
2023-02-09T05:52:36.189Z,-0.60
2023-02-09T05:55:02.780Z,-0.70
2023-02-09T05:57:29.347Z,-0.70
2023-02-09T05:59:55.904Z,-0.70
2023-02-09T06:02:22.567Z,-0.70
2023-02-09T06:04:49.200Z,-0.60
2023-02-09T06:07:15.882Z,-0.60
2023-02-09T06:09:42.437Z,-0.60
2023-02-09T06:12:08.989Z,-0.60
2023-02-09T06:14:35.673Z,-0.60
2023-02-09T06:17:02.337Z,-0.70
2023-02-09T06:19:28.956Z,-0.70
2023-02-09T06:21:55.540Z,-0.70
2023-02-09T06:24:22.096Z,-0.70
2023-02-09T06:26:48.702Z,-0.70
2023-02-09T06:29:15.293Z,-0.60
2023-02-09T06:31:42.212Z,-0.60
2023-02-09T06:34:09.419Z,-0.60
2023-02-09T06:36:36.276Z,-0.70
2023-02-09T06:39:07.191Z,-0.60
2023-02-09T06:41:33.895Z,-0.60
2023-02-09T06:44:00.498Z,-0.50
2023-02-09T06:46:28.426Z,-0.50
2023-02-09T06:48:55.228Z,-0.60
2023-02-09T06:51:22.153Z,-0.70
2023-02-09T06:53:48.803Z,-0.70
2023-02-09T06:56:15.949Z,-0.60
2023-02-09T06:58:42.529Z,-0.70
2023-02-09T07:01:11.648Z,-0.80
2023-02-09T07:03:38.808Z,-0.80
2023-02-09T07:06:10.837Z,-0.80
2023-02-09T07:08:37.520Z,-0.70
2023-02-09T07:11:06.138Z,-0.60
2023-02-09T07:13:33.351Z,-0.50
2023-02-09T07:16:01.836Z,-0.40
2023-02-09T07:18:28.824Z,-0.40
2023-02-09T07:21:01.224Z,-0.40
2023-02-09T07:23:28.229Z,-0.40
2023-02-09T07:25:54.837Z,-0.40
2023-02-09T07:28:21.737Z,-0.30
2023-02-09T07:30:52.893Z,-0.10
2023-02-09T07:33:20.206Z,0.00
2023-02-09T07:35:48.052Z,0.20
2023-02-09T07:38:15.244Z,0.40
2023-02-09T07:40:46.372Z,0.50
2023-02-09T07:43:14.195Z,0.50
2023-02-09T07:45:41.665Z,0.60
2023-02-09T07:48:10.913Z,0.70
2023-02-09T07:50:38.169Z,1.00
2023-02-09T07:53:04.788Z,1.10
2023-02-09T07:55:31.400Z,1.20
2023-02-09T07:57:58.029Z,1.30
2023-02-09T08:00:25.460Z,1.50
2023-02-09T08:02:52.324Z,1.70
2023-02-09T08:05:30.345Z,2.20
2023-02-09T08:07:57.116Z,4.20
2023-02-09T08:10:23.725Z,5.70
2023-02-09T08:12:59.872Z,6.00
2023-02-09T08:15:44.568Z,5.50
2023-02-09T08:18:19.677Z,4.90
2023-02-09T08:20:46.918Z,4.90
2023-02-09T08:23:19.694Z,5.10
2023-02-09T08:25:48.807Z,4.70
2023-02-09T08:28:15.905Z,4.20
2023-02-09T08:30:42.569Z,4.00
2023-02-09T08:33:09.192Z,4.00
2023-02-09T08:35:35.776Z,3.60
2023-02-09T08:38:03.533Z,3.70
2023-02-09T08:40:31.129Z,3.80
2023-02-09T08:42:58.145Z,3.60
2023-02-09T08:45:25.232Z,3.70
2023-02-09T08:47:52.081Z,3.80
2023-02-09T08:50:18.743Z,4.10
2023-02-09T08:52:45.339Z,4.10
2023-02-09T08:55:11.992Z,4.30
2023-02-09T08:57:44.470Z,4.30
2023-02-09T09:00:12.569Z,4.20
2023-02-09T09:02:39.131Z,4.10
2023-02-09T09:05:07.817Z,4.20
2023-02-09T09:07:34.536Z,4.20
2023-02-09T09:10:01.252Z,3.90
2023-02-09T09:12:29.938Z,3.80
2023-02-09T09:14:56.515Z,4.20
2023-02-09T09:17:23.119Z,4.40
2023-02-09T09:19:52.425Z,4.60
2023-02-09T09:22:19.116Z,4.80
2023-02-09T09:24:45.739Z,4.60
2023-02-09T09:27:12.559Z,4.90
2023-02-09T09:29:40.149Z,5.00
2023-02-09T09:32:07.558Z,4.90
2023-02-09T09:34:34.252Z,5.10
2023-02-09T09:37:00.819Z,5.20
2023-02-09T09:39:27.472Z,5.40
2023-02-09T09:41:59.334Z,5.50
2023-02-09T09:44:45.196Z,5.60
2023-02-09T09:47:19.993Z,5.60
2023-02-09T09:49:47.488Z,5.70
2023-02-09T09:52:25.257Z,5.70
2023-02-09T09:54:52.275Z,5.40
2023-02-09T09:57:30.514Z,5.60
2023-02-09T09:59:58.167Z,5.60
2023-02-09T10:02:34.704Z,5.70
2023-02-09T10:05:13.507Z,5.80
2023-02-09T10:07:43.474Z,6.10
2023-02-09T10:10:47.066Z,6.30
2023-02-09T10:13:23.749Z,6.60
2023-02-09T10:15:53.389Z,6.50
2023-02-09T10:18:27.014Z,6.60
2023-02-09T10:21:03.767Z,6.80
2023-02-09T10:23:45.772Z,6.80
2023-02-09T10:26:12.312Z,7.00
2023-02-09T10:28:42.539Z,7.00
2023-02-09T10:31:27.535Z,7.00
2023-02-09T10:33:58.604Z,7.00
2023-02-09T10:36:32.420Z,7.00
2023-02-09T10:39:16.817Z,7.20
2023-02-09T10:41:47.050Z,7.50
2023-02-09T10:44:19.187Z,7.60
2023-02-09T10:46:47.384Z,7.60
2023-02-09T10:49:32.937Z,7.80
2023-02-09T10:52:20.202Z,8.00
2023-02-09T10:54:59.674Z,8.00
2023-02-09T10:57:35.752Z,8.10
2023-02-09T11:00:27.311Z,8.20
2023-02-09T11:02:57.541Z,8.20
2023-02-09T11:05:31.916Z,8.30
2023-02-09T11:08:17.155Z,8.40
2023-02-09T11:10:48.929Z,8.70
2023-02-09T11:13:22.632Z,10.40
2023-02-09T11:16:15.979Z,11.40
2023-02-09T11:18:47.041Z,12.30
2023-02-09T11:21:23.697Z,12.80
2023-02-09T11:23:57.479Z,14.00
2023-02-09T11:26:50.387Z,14.30
2023-02-09T11:29:32.038Z,14.30
2023-02-09T11:32:24.118Z,13.70
2023-02-09T11:35:18.782Z,14.40
2023-02-09T11:38:03.209Z,14.30
2023-02-09T11:40:46.402Z,14.40
2023-02-09T11:43:32.468Z,16.40
2023-02-09T11:46:09.041Z,17.00
2023-02-09T11:48:42.894Z,16.60
2023-02-09T11:51:11.723Z,16.70
2023-02-09T11:54:12.071Z,16.20
2023-02-09T11:56:42.632Z,15.70
2023-02-09T11:59:15.016Z,14.60
2023-02-09T12:01:47.946Z,15.40
2023-02-09T12:04:41.036Z,15.10
2023-02-09T12:07:23.904Z,15.10
2023-02-09T12:09:53.550Z,14.20
2023-02-09T12:12:30.751Z,12.90
2023-02-09T12:15:12.134Z,13.90
2023-02-09T12:17:51.139Z,15.10
2023-02-09T12:20:40.983Z,15.10
2023-02-09T12:23:26.194Z,14.60
2023-02-09T12:25:59.452Z,15.30
2023-02-09T12:28:34.940Z,15.00
2023-02-09T12:31:03.175Z,15.10
2023-02-09T12:33:34.308Z,15.20
2023-02-09T12:36:15.996Z,15.50
2023-02-09T12:39:04.661Z,14.90
2023-02-09T12:41:34.792Z,12.90
2023-02-09T12:44:10.540Z,11.90
2023-02-09T12:46:56.650Z,11.90
2023-02-09T12:49:29.084Z,11.70
2023-02-09T12:52:02.033Z,11.10
2023-02-09T12:54:47.103Z,11.20
2023-02-09T12:57:16.820Z,11.30
2023-02-09T12:59:52.555Z,11.30
2023-02-09T13:02:48.392Z,11.10
2023-02-09T13:05:37.068Z,11.00
2023-02-09T13:08:18.614Z,10.80
2023-02-09T13:11:04.136Z,10.80
2023-02-09T13:13:54.957Z,10.50
2023-02-09T13:16:24.583Z,10.40
2023-02-09T13:19:24.134Z,10.30
2023-02-09T13:21:59.537Z,10.40
2023-02-09T13:24:34.613Z,10.30
2023-02-09T13:27:01.723Z,10.40
2023-02-09T13:29:30.845Z,10.40
2023-02-09T13:32:15.643Z,10.30
2023-02-09T13:35:03.810Z,10.20
2023-02-09T13:37:50.336Z,10.10
2023-02-09T13:40:19.104Z,10.00
2023-02-09T13:42:58.884Z,10.20
2023-02-09T13:45:26.747Z,10.00
2023-02-09T13:47:54.762Z,10.50
2023-02-09T13:50:24.147Z,10.60
2023-02-09T13:52:51.686Z,10.30
2023-02-09T13:55:26.905Z,10.10
2023-02-09T13:58:00.540Z,10.00
2023-02-09T14:00:30.246Z,9.50
2023-02-09T14:02:58.510Z,9.30
2023-02-09T14:05:54.255Z,9.10
2023-02-09T14:08:22.556Z,9.10
2023-02-09T14:10:56.733Z,8.90
2023-02-09T14:13:34.600Z,8.70
2023-02-09T14:16:09.065Z,8.50
2023-02-09T14:18:46.567Z,8.50
2023-02-09T14:21:15.689Z,8.30
2023-02-09T14:23:55.999Z,8.20
2023-02-09T14:26:27.181Z,8.00
2023-02-09T14:29:15.147Z,7.70
2023-02-09T14:31:46.298Z,7.80
2023-02-09T14:34:24.964Z,7.70
2023-02-09T14:36:54.758Z,7.70
2023-02-09T14:39:21.422Z,7.80
2023-02-09T14:42:10.657Z,7.70
2023-02-09T14:44:48.575Z,7.70
2023-02-09T14:47:34.444Z,7.70
2023-02-09T14:50:02.112Z,7.70
2023-02-09T14:52:31.427Z,7.60
2023-02-09T14:55:02.155Z,7.50
2023-02-09T14:57:32.020Z,7.40
2023-02-09T14:59:58.715Z,7.40
2023-02-09T15:02:27.441Z,7.40
2023-02-09T15:04:54.764Z,7.20
2023-02-09T15:07:28.321Z,7.10
2023-02-09T15:09:54.961Z,7.10
2023-02-09T15:12:27.976Z,7.00
2023-02-09T15:14:58.159Z,6.80
2023-02-09T15:17:27.915Z,6.80
2023-02-09T15:19:55.818Z,6.70
2023-02-09T15:22:22.818Z,6.60
2023-02-09T15:24:53.393Z,6.50
2023-02-09T15:27:24.417Z,6.40
2023-02-09T15:29:51.256Z,6.50
2023-02-09T15:32:19.364Z,6.40
2023-02-09T15:34:46.633Z,6.30
2023-02-09T15:37:26.357Z,6.20
2023-02-09T15:39:57.603Z,6.10
2023-02-09T15:42:42.772Z,6.10
2023-02-09T15:45:45.640Z,6.10
2023-02-09T15:48:13.051Z,6.00
2023-02-09T15:50:45.575Z,5.90
2023-02-09T15:53:18.658Z,6.10
2023-02-09T15:55:46.358Z,5.80
2023-02-09T15:58:16.024Z,5.60
2023-02-09T16:00:43.351Z,5.60
2023-02-09T16:03:19.766Z,5.50
2023-02-09T16:05:49.614Z,5.30
2023-02-09T16:08:21.233Z,5.30
2023-02-09T16:10:48.691Z,5.20
2023-02-09T16:13:17.101Z,5.00
2023-02-09T16:15:43.896Z,5.00
2023-02-09T16:18:10.568Z,4.90
2023-02-09T16:20:38.460Z,4.80
2023-02-09T16:23:19.878Z,4.80
2023-02-09T16:25:49.047Z,4.80
2023-02-09T16:28:15.840Z,4.90
2023-02-09T16:30:50.437Z,4.90
2023-02-09T16:33:18.228Z,4.90
2023-02-09T16:35:47.471Z,4.90
2023-02-09T16:38:18.212Z,4.90
2023-02-09T16:40:45.784Z,4.90
2023-02-09T16:43:13.521Z,4.90
2023-02-09T16:45:44.717Z,4.90
2023-02-09T16:48:22.477Z,5.00
2023-02-09T16:50:53.437Z,5.00
2023-02-09T16:53:32.563Z,5.00
2023-02-09T16:56:01.259Z,5.00
2023-02-09T16:58:28.450Z,4.90
2023-02-09T17:00:55.197Z,4.90
2023-02-09T17:03:42.621Z,4.80
2023-02-09T17:06:16.692Z,4.90
2023-02-09T17:08:44.127Z,5.00
2023-02-09T17:11:20.432Z,4.90
2023-02-09T17:13:47.487Z,4.90
2023-02-09T17:16:29.936Z,4.90
2023-02-09T17:19:00.799Z,4.80
2023-02-09T17:21:39.599Z,4.80
2023-02-09T17:24:13.222Z,4.90
2023-02-09T17:26:40.479Z,5.00
2023-02-09T17:29:07.761Z,5.00
2023-02-09T17:31:50.787Z,5.00
2023-02-09T17:34:20.459Z,4.90
2023-02-09T17:36:47.073Z,4.90
2023-02-09T17:39:13.881Z,4.90
2023-02-09T17:41:45.210Z,4.90
2023-02-09T17:44:28.950Z,5.00
2023-02-09T17:47:03.207Z,5.00
2023-02-09T17:49:29.871Z,4.90
2023-02-09T17:51:56.443Z,5.00
2023-02-09T17:54:23.067Z,5.00
2023-02-09T17:56:49.723Z,5.10
2023-02-09T17:59:19.630Z,5.10
2023-02-09T18:01:49.481Z,5.10
2023-02-09T18:04:22.176Z,5.10
2023-02-09T18:06:48.849Z,5.10
2023-02-09T18:09:15.443Z,5.00
2023-02-09T18:12:12.778Z,5.00
2023-02-09T18:14:39.362Z,5.00
2023-02-09T18:17:06.039Z,5.00
2023-02-09T18:19:33.085Z,5.10
2023-02-09T18:22:01.417Z,5.10
2023-02-09T18:24:32.841Z,5.10
2023-02-09T18:26:59.558Z,5.10
2023-02-09T18:29:29.303Z,5.10
2023-02-09T18:31:57.642Z,5.10
2023-02-09T18:34:24.514Z,5.10
2023-02-09T18:36:51.241Z,5.10
2023-02-09T18:39:17.834Z,5.10
2023-02-09T18:41:46.231Z,5.00
2023-02-09T18:44:13.013Z,5.10
2023-02-09T18:46:41.181Z,5.10
2023-02-09T18:49:11.489Z,5.10
2023-02-09T18:51:38.049Z,5.20
2023-02-09T18:54:05.479Z,5.10
2023-02-09T18:56:32.083Z,5.20
2023-02-09T18:58:58.743Z,5.10
2023-02-09T19:01:25.428Z,5.20
2023-02-09T19:03:53.307Z,5.10
2023-02-09T19:06:21.398Z,5.10
2023-02-09T19:08:50.046Z,5.10
2023-02-09T19:11:18.796Z,5.20
2023-02-09T19:14:05.500Z,5.20
2023-02-09T19:16:32.132Z,5.20
2023-02-09T19:18:59.040Z,5.20
2023-02-09T19:21:25.717Z,5.20
2023-02-09T19:23:53.914Z,5.20
2023-02-09T19:26:20.875Z,5.30
2023-02-09T19:28:48.342Z,6.70
2023-02-09T19:31:16.319Z,5.20
2023-02-09T19:33:42.960Z,5.10
2023-02-09T19:36:09.930Z,5.10
2023-02-09T19:38:36.493Z,5.10
2023-02-09T19:41:10.634Z,5.10
2023-02-09T19:43:38.853Z,5.20
2023-02-09T19:46:05.723Z,5.20
2023-02-09T19:48:32.973Z,5.10
2023-02-09T19:50:59.809Z,5.20
2023-02-09T19:53:27.016Z,5.20
2023-02-09T19:55:54.303Z,5.20
2023-02-09T19:58:21.649Z,5.20
2023-02-09T20:00:49.091Z,5.20
2023-02-09T20:03:16.468Z,5.20
2023-02-09T20:05:44.018Z,5.20
2023-02-09T20:08:13.670Z,5.10
2023-02-09T20:10:40.790Z,5.10
2023-02-09T20:13:08.427Z,5.20
2023-02-09T20:15:35.073Z,5.20
2023-02-09T20:18:01.711Z,5.20
2023-02-09T20:20:28.243Z,5.20
2023-02-09T20:22:54.781Z,5.20
2023-02-09T20:25:21.341Z,5.20
2023-02-09T20:27:49.675Z,5.20
2023-02-09T20:30:16.836Z,5.20
2023-02-09T20:32:43.553Z,5.20
2023-02-09T20:35:11.513Z,5.30
2023-02-09T20:37:38.164Z,5.30
2023-02-09T20:40:06.094Z,5.30
2023-02-09T20:42:51.373Z,5.30
2023-02-09T20:45:36.778Z,5.30
2023-02-09T20:48:05.506Z,5.30
2023-02-09T20:50:33.646Z,5.30
2023-02-09T20:53:03.856Z,5.30
2023-02-09T20:55:30.717Z,5.30
2023-02-09T20:57:57.337Z,5.20
2023-02-09T21:00:24.009Z,5.30
2023-02-09T21:02:50.604Z,5.30
2023-02-09T21:05:17.282Z,5.30
2023-02-09T21:07:44.250Z,5.20
2023-02-09T21:10:12.850Z,5.20
2023-02-09T21:12:39.480Z,5.30
2023-02-09T21:15:06.517Z,5.30
2023-02-09T21:17:33.169Z,5.20
2023-02-09T21:20:00.105Z,5.30
2023-02-09T21:22:26.691Z,5.20
2023-02-09T21:24:53.277Z,5.20
2023-02-09T21:27:20.377Z,5.30
2023-02-09T21:29:46.948Z,5.40
2023-02-09T21:32:13.590Z,5.50
2023-02-09T21:34:40.129Z,5.40
2023-02-09T21:37:10.058Z,5.40
2023-02-09T21:39:36.668Z,5.40
2023-02-09T21:42:22.139Z,5.30
2023-02-09T21:44:48.799Z,5.30
2023-02-09T21:47:15.547Z,5.30
2023-02-09T21:49:42.134Z,5.30
2023-02-09T21:52:08.701Z,5.30
2023-02-09T21:54:35.286Z,5.30
2023-02-09T21:57:02.511Z,5.30
2023-02-09T21:59:29.700Z,5.30
2023-02-09T22:01:56.426Z,5.30
2023-02-09T22:04:23.197Z,5.30
2023-02-09T22:06:49.857Z,5.40
2023-02-09T22:09:16.417Z,5.40
2023-02-09T22:11:43.049Z,5.30
2023-02-09T22:14:09.645Z,5.30
2023-02-09T22:16:36.398Z,5.30
2023-02-09T22:19:03.842Z,5.30
2023-02-09T22:21:30.443Z,5.20
2023-02-09T22:23:57.018Z,5.30
2023-02-09T22:26:23.538Z,5.30
2023-02-09T22:28:50.229Z,5.30
2023-02-09T22:31:21.367Z,5.30
2023-02-09T22:33:48.453Z,5.30
2023-02-09T22:36:18.417Z,5.30
2023-02-09T22:38:45.188Z,5.30
2023-02-09T22:41:23.441Z,5.20
2023-02-09T22:43:51.924Z,5.30
2023-02-09T22:46:22.083Z,5.30
2023-02-09T22:48:57.547Z,5.30
2023-02-09T22:51:26.813Z,5.30
2023-02-09T22:53:53.763Z,5.30
2023-02-09T22:56:20.381Z,5.30
2023-02-09T22:58:47.616Z,5.30
2023-02-09T23:01:14.917Z,5.30
2023-02-09T23:03:41.797Z,5.30
2023-02-09T23:06:12.664Z,5.30
2023-02-09T23:08:39.244Z,5.30
2023-02-09T23:11:08.777Z,5.20
2023-02-09T23:13:36.619Z,5.20
2023-02-09T23:16:14.897Z,5.20
2023-02-09T23:18:48.093Z,5.20
2023-02-09T23:21:16.243Z,5.20
2023-02-09T23:23:43.170Z,5.20
2023-02-09T23:26:10.020Z,5.20
2023-02-09T23:28:36.561Z,5.20
2023-02-09T23:31:07.955Z,5.20
2023-02-09T23:33:36.400Z,5.20
2023-02-09T23:36:12.659Z,5.20
2023-02-09T23:38:39.402Z,5.20
2023-02-09T23:41:11.410Z,5.20
2023-02-09T23:43:38.085Z,5.20
2023-02-09T23:46:06.967Z,5.20
2023-02-09T23:48:34.998Z,5.20
2023-02-09T23:51:03.780Z,5.20
2023-02-09T23:53:31.547Z,5.20
2023-02-09T23:56:03.565Z,5.20
2023-02-09T23:58:36.205Z,5.20
